Time;durP1;ratioP1;P1;durP2;ratioP2;P2;SDS_P1;SDS_P2;PMS_P1;PMS_P2;Temp;Humidity;BMP_temperature;BMP_pressure;BME280_temperature;BME280_humidity;BME280_pressure;Samples;Min_cycle;Max_cycle;Signal;HPM_P1;HPM_P2
2022/01/30 00:00:31;;;;;;;0.90;0.80;;;4.50;99.90;;;;;;5091636;28;20211;-76
2022/01/30 00:02:57;;;;;;;1.20;1.10;;;4.60;99.90;;;;;;5091277;28;20630;-76
2022/01/30 00:05:24;;;;;;;2.38;1.40;;;4.60;99.90;;;;;;5091940;28;20230;-76
2022/01/30 00:07:51;;;;;;;1.15;1.00;;;4.60;99.90;;;;;;5091285;28;20230;-76
2022/01/30 00:10:18;;;;;;;1.30;1.13;;;4.70;99.90;;;;;;5091727;28;20210;-76
2022/01/30 00:12:49;;;;;;;1.40;1.30;;;4.70;99.90;;;;;;5090724;28;20210;-75
2022/01/30 00:15:19;;;;;;;1.88;1.40;;;4.70;99.90;;;;;;5091609;28;20227;-76
2022/01/30 00:17:51;;;;;;;1.30;1.20;;;4.70;99.90;;;;;;5091529;28;20580;-75
2022/01/30 00:20:21;;;;;;;1.83;1.33;;;4.70;99.90;;;;;;5091447;28;20305;-76
2022/01/30 00:22:50;;;;;;;1.30;1.20;;;4.80;99.90;;;;;;5090904;28;20207;-76
2022/01/30 00:25:25;;;;;;;1.30;1.20;;;4.80;99.90;;;;;;5091172;28;20223;-76
2022/01/30 00:28:01;;;;;;;2.25;1.15;;;4.90;99.90;;;;;;5091618;28;20227;-76
2022/01/30 00:30:33;;;;;;;1.58;1.17;;;5.00;99.90;;;;;;5091189;28;20203;-75
2022/01/30 00:33:00;;;;;;;1.10;1.00;;;5.00;99.90;;;;;;5090735;28;20200;-75
2022/01/30 00:35:27;;;;;;;1.15;1.00;;;5.00;99.90;;;;;;5091280;28;20223;-76
2022/01/30 00:37:54;;;;;;;1.27;1.17;;;5.10;99.90;;;;;;5091064;28;20296;-75
2022/01/30 00:40:21;;;;;;;2.28;1.23;;;5.10;99.90;;;;;;5091144;28;20278;-75
2022/01/30 00:42:48;;;;;;;1.30;1.20;;;5.20;99.90;;;;;;5090221;28;20199;-74
2022/01/30 00:45:15;;;;;;;1.88;1.20;;;5.30;99.90;;;;;;5091013;28;20222;-76
2022/01/30 00:47:43;;;;;;;1.63;1.20;;;5.30;99.90;;;;;;5091050;28;20227;-75
2022/01/30 00:50:10;;;;;;;1.30;1.20;;;5.30;99.90;;;;;;5090917;28;20203;-76
2022/01/30 00:52:37;;;;;;;1.60;1.48;;;5.30;99.90;;;;;;5090487;28;20227;-75
2022/01/30 00:55:04;;;;;;;1.00;0.90;;;5.40;99.90;;;;;;5090484;28;20224;-75
2022/01/30 00:57:31;;;;;;;1.20;1.10;;;5.40;99.90;;;;;;5091095;28;20223;-75
2022/01/30 00:59:58;;;;;;;7.18;1.40;;;5.40;99.90;;;;;;5091215;28;20297;-75
2022/01/30 01:02:25;;;;;;;1.35;1.25;;;5.40;99.90;;;;;;5090152;28;20203;-76
2022/01/30 01:04:53;;;;;;;1.30;1.20;;;5.40;99.90;;;;;;5090688;28;20227;-75
2022/01/30 01:07:22;;;;;;;1.33;1.23;;;5.50;99.90;;;;;;5091066;28;20224;-76
2022/01/30 01:09:57;;;;;;;1.10;0.98;;;5.50;99.90;;;;;;5090871;28;20257;-76
2022/01/30 01:23:27;;;;;;;1.40;1.30;;;5.50;99.90;;;;;;5090289;28;20215;-75
2022/01/30 01:25:55;;;;;;;1.40;1.30;;;5.50;99.90;;;;;;5090363;28;20220;-76
2022/01/30 01:28:22;;;;;;;1.70;1.15;;;5.50;99.90;;;;;;5090574;28;20220;-75
2022/01/30 01:30:48;;;;;;;1.23;1.10;;;5.60;99.90;;;;;;5090529;28;20690;-76
2022/01/30 01:33:16;;;;;;;1.77;1.20;;;5.60;99.90;;;;;;5090193;28;20300;-76
2022/01/30 01:35:44;;;;;;;1.20;1.10;;;5.60;99.90;;;;;;5090383;28;20324;-76
2022/01/30 01:38:12;;;;;;;1.10;1.00;;;5.60;99.90;;;;;;5090530;28;20204;-76
2022/01/30 01:40:40;;;;;;;1.38;1.20;;;5.50;99.90;;;;;;5090877;28;20207;-75
2022/01/30 01:43:06;;;;;;;1.40;1.30;;;5.50;99.90;;;;;;5089895;28;20208;-75
2022/01/30 01:45:36;;;;;;;1.25;1.15;;;5.50;99.90;;;;;;5090058;28;20225;-75
2022/01/30 01:48:09;;;;;;;1.40;1.30;;;5.50;99.90;;;;;;5090319;28;20223;-75
2022/01/30 01:50:39;;;;;;;2.17;1.25;;;5.50;99.90;;;;;;5090498;28;20689;-76
2022/01/30 01:53:08;;;;;;;2.03;1.33;;;5.50;99.90;;;;;;5089607;28;20200;-75
2022/01/30 01:55:36;;;;;;;1.40;1.30;;;5.50;99.90;;;;;;5090226;28;20251;-74
2022/01/30 01:58:03;;;;;;;1.98;1.30;;;5.60;99.90;;;;;;5089969;28;20203;-75
2022/01/30 02:00:30;;;;;;;1.60;1.50;;;5.60;99.90;;;;;;5090397;28;20207;-76
2022/01/30 02:02:56;;;;;;;1.70;1.40;;;5.60;99.90;;;;;;5089392;28;20608;-76
2022/01/30 02:05:26;;;;;;;2.35;1.17;;;5.50;99.90;;;;;;5090050;28;20246;-75
2022/01/30 02:08:26;;;;;;;1.52;1.35;;;5.50;99.90;;;;;;5090231;28;20593;-76
2022/01/30 02:10:59;;;;;;;1.60;1.35;;;5.60;99.90;;;;;;5089820;28;20253;-75
2022/01/30 02:13:47;;;;;;;2.83;1.20;;;5.50;99.90;;;;;;5089567;28;20249;-75
2022/01/30 02:24:40;;;;;;;1.40;1.30;;;5.60;99.90;;;;;;5093473;28;20772;-76
2022/01/30 02:27:07;;;;;;;1.20;1.10;;;5.50;99.90;;;;;;5093234;28;20254;-76
2022/01/30 02:29:34;;;;;;;1.38;1.27;;;5.50;99.90;;;;;;5093671;28;20199;-75
2022/01/30 02:32:02;;;;;;;1.50;1.40;;;5.50;99.90;;;;;;5093193;28;20199;-74
2022/01/30 02:34:29;;;;;;;1.42;1.33;;;5.40;99.90;;;;;;5092917;28;20567;-75
2022/01/30 02:36:56;;;;;;;1.33;1.20;;;5.40;99.90;;;;;;5093341;28;20671;-76
2022/01/30 02:39:24;;;;;;;2.85;1.30;;;5.40;99.90;;;;;;5093258;28;20200;-76
2022/01/30 02:41:52;;;;;;;1.40;1.30;;;5.40;99.90;;;;;;5093280;28;20249;-75
2022/01/30 02:44:23;;;;;;;1.95;1.42;;;5.50;99.90;;;;;;5092718;28;20200;-76
2022/01/30 02:46:53;;;;;;;3.40;1.65;;;5.40;99.90;;;;;;5093235;28;20203;-75
2022/01/30 02:49:41;;;;;;;1.88;1.52;;;5.40;99.90;;;;;;5093336;28;20196;-75
2022/01/30 02:52:09;;;;;;;1.35;1.25;;;5.40;99.90;;;;;;5093125;28;20571;-74
2022/01/30 02:54:36;;;;;;;1.50;1.40;;;5.40;99.90;;;;;;5106138;28;20691;-74
2022/01/30 02:57:05;;;;;;;2.03;1.60;;;5.50;99.90;;;;;;5112464;28;20200;-73
2022/01/30 02:59:32;;;;;;;1.80;1.70;;;5.50;99.90;;;;;;5102059;28;20206;-75
2022/01/30 03:02:00;;;;;;;1.95;1.50;;;5.40;99.90;;;;;;5092856;28;20200;-75
2022/01/30 03:04:27;;;;;;;2.38;2.00;;;5.40;99.90;;;;;;5092654;28;20207;-76
2022/01/30 03:06:54;;;;;;;1.52;1.42;;;5.50;99.90;;;;;;5092933;28;20211;-75
2022/01/30 03:09:21;;;;;;;1.92;1.73;;;5.40;99.90;;;;;;5092745;28;20771;-75
2022/01/30 03:11:47;;;;;;;1.67;1.25;;;5.40;99.90;;;;;;5092713;28;20203;-75
2022/01/30 03:14:16;;;;;;;1.50;1.38;;;5.40;99.90;;;;;;5092278;28;20616;-76
2022/01/30 03:16:42;;;;;;;2.22;1.52;;;5.50;99.90;;;;;;5092751;28;20223;-76
2022/01/30 03:19:09;;;;;;;1.58;1.48;;;5.50;99.90;;;;;;5092564;28;20208;-76
2022/01/30 03:21:36;;;;;;;1.80;1.40;;;5.50;99.90;;;;;;5092616;28;20208;-75
2022/01/30 03:24:02;;;;;;;1.92;1.70;;;5.50;99.90;;;;;;5091957;28;20566;-75
2022/01/30 03:26:36;;;;;;;2.85;1.40;;;5.50;99.90;;;;;;5091961;28;20219;-76
2022/01/30 03:29:05;;;;;;;1.60;1.50;;;5.40;99.90;;;;;;5092354;28;20231;-75
2022/01/30 03:31:34;;;;;;;1.40;1.25;;;5.40;99.90;;;;;;5092481;28;20196;-76
2022/01/30 03:34:01;;;;;;;1.50;1.30;;;5.40;99.90;;;;;;5091858;28;20670;-76
2022/01/30 03:36:28;;;;;;;1.80;1.50;;;5.40;99.90;;;;;;5092289;28;20224;-75
2022/01/30 03:38:54;;;;;;;1.50;1.40;;;5.50;99.90;;;;;;5092022;28;20223;-76
2022/01/30 03:41:21;;;;;;;1.30;1.17;;;5.50;99.90;;;;;;5092361;28;20720;-75
2022/01/30 03:43:48;;;;;;;1.25;1.15;;;5.50;99.90;;;;;;5091392;28;20203;-75
2022/01/30 03:46:15;;;;;;;1.13;1.02;;;5.50;99.90;;;;;;5092330;28;20219;-75
2022/01/30 03:48:43;;;;;;;2.20;1.50;;;5.50;99.90;;;;;;5092227;28;20314;-75
2022/01/30 03:51:10;;;;;;;2.75;1.80;;;5.50;99.90;;;;;;5097544;28;20203;-75
2022/01/30 03:53:36;;;;;;;2.03;1.45;;;5.60;99.90;;;;;;5092385;28;20205;-76
2022/01/30 03:56:04;;;;;;;1.40;1.30;;;5.60;99.90;;;;;;5091700;28;20220;-75
2022/01/30 03:58:31;;;;;;;2.95;1.50;;;5.60;99.90;;;;;;5092379;28;20199;-75
2022/01/30 04:00:58;;;;;;;1.75;1.55;;;5.50;99.90;;;;;;5091734;28;20203;-75
2022/01/30 04:03:25;;;;;;;1.67;1.55;;;5.50;99.90;;;;;;5091500;28;20215;-75
2022/01/30 04:05:53;;;;;;;2.53;1.40;;;5.50;99.90;;;;;;5150197;22;20712;-75
2022/01/30 04:08:20;;;;;;;2.35;1.13;;;5.60;99.90;;;;;;5071194;28;20224;-75
2022/01/30 04:10:47;;;;;;;2.13;1.67;;;5.60;99.90;;;;;;5071387;28;20200;-76
2022/01/30 04:13:15;;;;;;;2.15;1.60;;;5.70;99.90;;;;;;5070768;28;20227;-75
2022/01/30 04:15:42;;;;;;;1.98;1.88;;;5.60;99.90;;;;;;5071049;28;20224;-75
2022/01/30 04:18:09;;;;;;;3.40;1.92;;;5.70;99.90;;;;;;5070991;28;20668;-75
2022/01/30 04:20:37;;;;;;;3.95;2.05;;;5.70;99.90;;;;;;5071025;28;20204;-76
2022/01/30 04:23:05;;;;;;;2.00;1.55;;;5.70;99.90;;;;;;5070788;28;20574;-76
2022/01/30 04:25:31;;;;;;;3.75;2.30;;;5.70;99.90;;;;;;5070699;28;20223;-75
2022/01/30 04:27:58;;;;;;;3.15;2.05;;;5.80;99.90;;;;;;5071001;28;20773;-75
2022/01/30 04:30:25;;;;;;;3.05;2.38;;;5.80;99.90;;;;;;5071017;28;20200;-76
2022/01/30 04:32:53;;;;;;;6.35;2.05;;;5.90;99.90;;;;;;5070651;28;20212;-75
2022/01/30 04:35:24;;;;;;;5.32;2.35;;;5.90;99.90;;;;;;5070708;28;20224;-76
2022/01/30 04:38:02;;;;;;;4.25;2.63;;;5.90;99.90;;;;;;5070406;28;20200;-75
2022/01/30 04:41:04;;;;;;;8.50;2.88;;;5.90;99.90;;;;;;5070845;28;20222;-75
2022/01/30 04:55:28;;;;;;;9.02;3.70;;;6.00;99.90;;;;;;4988965;28;20822;-75
2022/01/30 04:58:01;;;;;;;5.07;3.53;;;6.00;99.90;;;;;;4988577;28;20607;-76
2022/01/30 05:06:05;;;;;;;4.95;2.60;;;6.10;99.90;;;;;;5063104;28;20242;-76
2022/01/30 05:08:32;;;;;;;7.47;3.33;;;6.00;99.90;;;;;;5070319;28;20338;-76
2022/01/30 05:11:01;;;;;;;5.35;3.10;;;6.10;99.90;;;;;;5070485;28;20200;-75
2022/01/30 05:13:32;;;;;;;7.53;3.22;;;6.00;99.90;;;;;;5069856;28;20200;-75
2022/01/30 05:15:59;;;;;;;4.45;2.85;;;6.00;99.90;;;;;;5070144;28;20216;-75
2022/01/30 05:18:29;;;;;;;4.70;3.13;;;6.00;99.90;;;;;;5070447;28;20576;-75
2022/01/30 05:20:56;;;;;;;6.45;3.03;;;6.00;99.90;;;;;;5068815;28;20706;-74
2022/01/30 05:23:23;;;;;;;5.15;3.10;;;5.90;99.90;;;;;;5065508;28;20279;-74
2022/01/30 05:25:52;;;;;;;7.72;3.55;;;5.90;99.90;;;;;;5068747;28;20227;-74
2022/01/30 05:28:22;;;;;;;8.75;3.22;;;5.90;99.90;;;;;;5068629;28;20256;-74
2022/01/30 05:30:51;;;;;;;5.35;3.00;;;5.80;99.90;;;;;;5068506;28;20265;-74
2022/01/30 05:33:18;;;;;;;6.00;3.10;;;5.80;99.90;;;;;;5068261;28;20207;-74
2022/01/30 05:35:45;;;;;;;3.28;2.97;;;5.80;99.90;;;;;;5068550;28;20255;-73
2022/01/30 05:38:13;;;;;;;8.65;4.05;;;5.80;99.90;;;;;;5067826;28;20670;-75
2022/01/30 05:40:40;;;;;;;6.25;3.20;;;5.80;99.90;;;;;;5075515;28;20298;-75
2022/01/30 05:43:08;;;;;;;4.25;2.60;;;5.70;99.90;;;;;;5089094;28;20230;-75
2022/01/30 05:45:41;;;;;;;9.30;3.83;;;5.70;99.90;;;;;;5088943;28;20717;-75
2022/01/30 05:48:15;;;;;;;7.68;3.10;;;5.70;99.90;;;;;;5090738;28;20218;-75
2022/01/30 05:50:44;;;;;;;12.85;3.30;;;5.70;99.90;;;;;;5092709;28;20206;-75
2022/01/30 05:53:10;;;;;;;7.53;3.75;;;5.60;99.90;;;;;;5092617;28;20206;-75
2022/01/30 05:55:38;;;;;;;6.88;3.33;;;5.60;99.90;;;;;;5092913;28;20226;-76
2022/01/30 05:58:04;;;;;;;11.18;3.78;;;5.50;99.90;;;;;;5093279;28;20207;-76
2022/01/30 06:00:31;;;;;;;8.85;3.10;;;5.50;99.90;;;;;;5093272;28;20219;-74
2022/01/30 06:02:58;;;;;;;5.68;2.65;;;5.60;99.90;;;;;;5092779;28;20196;-74
2022/01/30 06:05:26;;;;;;;5.50;2.78;;;5.60;99.90;;;;;;5092740;28;20234;-77
2022/01/30 06:07:55;;;;;;;9.02;2.78;;;5.60;99.90;;;;;;5092996;28;20231;-75
2022/01/30 06:10:23;;;;;;;5.90;2.70;;;5.60;99.90;;;;;;5093252;28;20199;-76
2022/01/30 06:12:50;;;;;;;6.80;2.65;;;5.70;99.90;;;;;;5092325;28;20204;-75
2022/01/30 06:15:17;;;;;;;6.50;2.95;;;5.70;99.90;;;;;;5093225;28;20234;-75
2022/01/30 06:17:44;;;;;;;7.55;3.38;;;5.70;99.90;;;;;;5093049;28;20199;-75
2022/01/30 06:20:12;;;;;;;7.63;3.10;;;5.60;99.90;;;;;;5092884;28;20191;-76
2022/01/30 06:22:41;;;;;;;7.50;3.25;;;5.60;99.90;;;;;;5092253;28;20207;-75
2022/01/30 06:25:09;;;;;;;7.90;3.40;;;5.60;99.90;;;;;;5092672;28;20589;-77
2022/01/30 06:27:36;;;;;;;6.82;2.92;;;5.70;99.90;;;;;;5093039;28;20219;-76
2022/01/30 06:30:04;;;;;;;5.72;2.63;;;5.60;99.90;;;;;;5093034;28;20236;-75
2022/01/30 06:32:31;;;;;;;7.38;4.15;;;5.60;99.90;;;;;;5091761;28;20433;-75
2022/01/30 06:34:58;;;;;;;13.63;3.25;;;5.50;99.90;;;;;;5093213;28;20222;-75
2022/01/30 06:37:25;;;;;;;7.65;3.20;;;5.50;99.90;;;;;;5092339;28;20206;-76
2022/01/30 06:39:53;;;;;;;7.50;2.83;;;5.40;99.90;;;;;;5092669;28;20203;-75
2022/01/30 06:42:20;;;;;;;8.45;3.25;;;5.40;99.90;;;;;;5091993;28;20814;-75
2022/01/30 06:44:47;;;;;;;8.05;3.90;;;5.40;99.90;;;;;;5091764;28;20220;-75
2022/01/30 06:47:14;;;;;;;11.95;2.92;;;5.30;99.90;;;;;;5092278;28;20211;-75
2022/01/30 06:49:41;;;;;;;7.78;3.28;;;5.30;99.90;;;;;;5091967;28;20315;-74
2022/01/30 06:52:09;;;;;;;9.85;3.38;;;5.20;99.90;;;;;;5092120;28;20203;-75
2022/01/30 06:54:38;;;;;;;8.30;4.20;;;5.20;99.90;;;;;;5091958;28;20206;-76
2022/01/30 06:57:07;;;;;;;9.73;3.58;;;5.20;99.90;;;;;;5092212;28;20658;-75
2022/01/30 06:59:35;;;;;;;7.78;3.17;;;5.10;99.90;;;;;;5090999;28;20192;-76
2022/01/30 07:02:01;;;;;;;4.88;3.00;;;5.10;99.90;;;;;;5091872;28;20568;-76
2022/01/30 07:04:28;;;;;;;8.15;3.25;;;5.10;99.90;;;;;;5091904;28;20571;-75
2022/01/30 07:06:55;;;;;;;4.97;2.50;;;5.10;99.90;;;;;;5091630;28;20195;-75
2022/01/30 07:09:22;;;;;;;6.93;2.97;;;5.10;99.90;;;;;;5092029;28;20223;-75
2022/01/30 07:11:49;;;;;;;8.90;3.13;;;5.00;99.90;;;;;;5091880;28;20200;-75
2022/01/30 07:14:17;;;;;;;6.30;3.17;;;5.00;99.90;;;;;;5091186;28;20195;-76
2022/01/30 07:16:44;;;;;;;6.93;2.83;;;5.00;99.90;;;;;;5091878;28;20222;-75
2022/01/30 07:19:11;;;;;;;7.22;3.38;;;4.90;99.90;;;;;;5091703;28;20196;-75
2022/01/30 07:21:38;;;;;;;12.48;3.60;;;4.90;99.90;;;;;;5073006;28;20196;-76
2022/01/30 07:24:05;;;;;;;6.57;3.80;;;4.80;99.90;;;;;;5070782;28;20196;-75
2022/01/30 07:26:33;;;;;;;5.13;3.10;;;4.90;99.90;;;;;;5071221;28;20227;-75
2022/01/30 07:29:00;;;;;;;5.95;3.55;;;4.90;99.90;;;;;;5071110;28;20224;-76
2022/01/30 07:31:28;;;;;;;5.15;2.80;;;4.90;99.90;;;;;;5070978;28;20603;-75
2022/01/30 07:33:54;;;;;;;10.95;3.95;;;4.80;99.90;;;;;;5070534;28;20196;-76
2022/01/30 07:36:21;;;;;;;8.73;3.05;;;4.90;99.90;;;;;;5072042;28;20297;-75
2022/01/30 07:38:48;;;;;;;8.63;3.47;;;4.90;99.90;;;;;;5070711;28;20192;-75
2022/01/30 07:41:15;;;;;;;8.20;3.53;;;4.90;99.90;;;;;;5071931;28;20255;-74
2022/01/30 07:43:41;;;;;;;9.48;3.50;;;4.90;99.90;;;;;;5075022;28;20295;-75
2022/01/30 07:46:08;;;;;;;7.13;3.10;;;4.90;99.90;;;;;;5090635;28;20224;-76
2022/01/30 07:48:36;;;;;;;7.53;3.85;;;4.90;99.90;;;;;;5090991;28;20219;-75
2022/01/30 07:51:04;;;;;;;11.10;3.10;;;5.00;99.90;;;;;;5090486;28;20204;-75
2022/01/30 07:53:30;;;;;;;5.82;3.03;;;5.00;99.90;;;;;;5087824;28;20199;-76
2022/01/30 07:55:57;;;;;;;11.50;3.70;;;5.20;99.90;;;;;;5090810;28;20225;-76
2022/01/30 07:58:24;;;;;;;5.45;3.45;;;5.30;99.90;;;;;;5090874;28;20240;-75
2022/01/30 08:00:51;;;;;;;10.15;4.60;;;5.30;99.90;;;;;;5090975;28;20206;-75
2022/01/30 08:03:18;;;;;;;10.40;3.38;;;5.40;99.90;;;;;;5090369;28;20231;-75
2022/01/30 08:05:47;;;;;;;9.98;3.22;;;5.50;99.90;;;;;;5089586;28;20651;-75
2022/01/30 08:08:14;;;;;;;10.88;3.60;;;6.00;99.90;;;;;;5090881;28;20199;-75
2022/01/30 08:10:41;;;;;;;14.95;3.83;;;6.60;99.90;;;;;;5089898;28;20230;-76
2022/01/30 08:13:08;;;;;;;7.70;3.13;;;7.10;99.90;;;;;;5088826;28;20196;-75
2022/01/30 08:15:34;;;;;;;9.38;3.55;;;7.50;99.90;;;;;;5089820;28;20247;-75
2022/01/30 08:18:01;;;;;;;12.85;3.20;;;7.70;99.90;;;;;;5090236;28;20227;-75
2022/01/30 08:20:28;;;;;;;7.93;3.40;;;7.90;99.90;;;;;;5090095;28;20734;-76
2022/01/30 08:22:57;;;;;;;9.65;3.00;;;7.80;99.90;;;;;;5089330;28;20281;-76
2022/01/30 08:25:25;;;;;;;7.65;3.17;;;7.80;99.90;;;;;;5089791;28;20220;-76
2022/01/30 08:27:54;;;;;;;6.75;3.50;;;8.20;99.90;;;;;;5090610;28;20209;-77
2022/01/30 08:30:21;;;;;;;6.82;3.08;;;9.10;99.90;;;;;;5090830;28;20605;-77
2022/01/30 08:32:49;;;;;;;5.72;3.40;;;10.20;99.90;;;;;;5090156;28;20203;-77
2022/01/30 08:35:17;;;;;;;7.38;3.22;;;11.00;99.90;;;;;;5090692;28;20224;-76
2022/01/30 08:37:44;;;;;;;8.77;4.32;;;11.90;99.90;;;;;;5089880;28;20200;-76
2022/01/30 08:40:14;;;;;;;5.28;3.20;;;12.40;99.90;;;;;;5090656;28;20204;-76
2022/01/30 08:42:41;;;;;;;5.20;3.00;;;12.90;99.90;;;;;;5088161;28;20199;-76
2022/01/30 08:45:09;;;;;;;8.00;3.03;;;13.40;99.90;;;;;;5090168;28;20227;-76
2022/01/30 08:47:37;;;;;;;7.00;2.78;;;13.70;99.10;;;;;;5089083;28;20211;-77
2022/01/30 08:50:06;;;;;;;11.95;3.45;;;13.80;99.50;;;;;;5089981;28;20698;-76
2022/01/30 08:52:32;;;;;;;9.10;3.42;;;13.90;99.00;;;;;;5088726;28;20206;-77
2022/01/30 08:54:59;;;;;;;9.52;3.22;;;13.70;98.80;;;;;;5090050;28;20215;-77
2022/01/30 08:57:27;;;;;;;9.43;3.65;;;13.10;98.90;;;;;;5089249;28;20229;-75
2022/01/30 08:59:55;;;;;;;6.75;3.20;;;12.50;99.00;;;;;;5089926;28;20203;-77
2022/01/30 09:02:22;;;;;;;9.95;2.92;;;12.10;98.90;;;;;;5089265;28;20199;-77
2022/01/30 09:04:49;;;;;;;8.27;2.72;;;11.30;99.40;;;;;;5089424;28;20258;-77
2022/01/30 09:07:16;;;;;;;8.63;3.70;;;10.50;99.90;;;;;;5089033;28;20204;-76
2022/01/30 09:09:43;;;;;;;12.02;3.25;;;9.70;99.90;;;;;;5089964;28;20215;-76
2022/01/30 09:12:10;;;;;;;7.68;3.03;;;11.10;99.90;;;;;;5088869;28;20640;-77
2022/01/30 09:14:39;;;;;;;7.10;3.35;;;13.60;98.20;;;;;;5089336;28;20203;-76
2022/01/30 09:17:12;;;;;;;5.55;2.90;;;16.00;95.70;;;;;;5089574;28;20242;-76
2022/01/30 09:19:40;;;;;;;7.00;2.90;;;17.90;93.60;;;;;;5089133;28;20600;-76
2022/01/30 09:22:07;;;;;;;6.77;2.60;;;19.60;92.40;;;;;;5089179;28;20453;-76
2022/01/30 09:24:34;;;;;;;6.03;2.60;;;20.60;89.90;;;;;;5081194;28;20450;-76
2022/01/30 09:27:01;;;;;;;8.57;3.33;;;20.80;88.30;;;;;;5082539;28;20534;-76
2022/01/30 09:29:28;;;;;;;8.70;3.30;;;21.00;85.20;;;;;;5083529;28;20572;-76
2022/01/30 09:31:57;;;;;;;9.03;3.70;;;20.70;85.80;;;;;;5081913;28;20937;-77
2022/01/30 09:34:24;;;;;;;9.50;3.10;;;20.80;85.70;;;;;;5081945;28;20867;-76
2022/01/30 09:36:51;;;;;;;6.33;2.70;;;21.40;83.50;;;;;;5082997;28;20541;-76
2022/01/30 09:39:18;;;;;;;5.80;3.17;;;21.80;82.80;;;;;;5082877;28;20450;-77
2022/01/30 09:41:49;;;;;;;8.33;3.20;;;21.80;82.40;;;;;;5081943;28;20540;-77
2022/01/30 09:44:17;;;;;;;7.77;3.17;;;22.40;81.20;;;;;;5081217;28;20942;-77
2022/01/30 09:46:45;;;;;;;5.10;2.63;;;22.10;79.50;;;;;;5081596;28;21007;-76
2022/01/30 09:49:14;;;;;;;9.33;3.40;;;21.50;78.30;;;;;;5083959;28;20460;-75
2022/01/30 09:51:43;;;;;;;7.10;3.40;;;21.10;80.10;;;;;;5082792;28;20455;-76
2022/01/30 09:54:11;;;;;;;6.67;3.10;;;20.70;78.60;;;;;;5081364;28;20462;-76
2022/01/30 09:56:38;;;;;;;4.73;2.93;;;20.60;79.90;;;;;;5081641;28;20568;-77
2022/01/30 09:59:05;;;;;;;6.67;2.73;;;20.30;81.00;;;;;;5091629;28;20450;-75
2022/01/30 10:01:34;;;;;;;4.93;3.30;;;19.70;81.40;;;;;;5092567;28;20670;-75
2022/01/30 10:04:01;;;;;;;6.20;3.23;;;18.90;82.60;;;;;;5092880;28;20457;-75
2022/01/30 10:06:33;;;;;;;8.37;2.67;;;19.00;82.40;;;;;;5146375;22;20448;-73
2022/01/30 10:09:11;;;;;;;7.30;3.20;;;19.20;81.00;;;;;;5072359;28;20454;-73
2022/01/30 10:11:48;;;;;;;6.87;2.63;;;19.60;81.70;;;;;;5072904;28;20462;-72
2022/01/30 10:14:16;;;;;;;8.70;3.70;;;20.30;80.60;;;;;;5069759;28;20469;-72
2022/01/30 10:16:44;;;;;;;7.20;3.00;;;20.20;80.00;;;;;;5072278;28;20497;-72
2022/01/30 10:19:17;;;;;;;5.53;3.10;;;20.60;78.00;;;;;;5072184;28;20454;-72
2022/01/30 10:21:46;;;;;;;6.97;2.40;;;20.70;78.90;;;;;;5072235;28;20470;-72
2022/01/30 10:24:24;;;;;;;6.03;2.83;;;21.30;77.20;;;;;;5072081;28;20462;-72
2022/01/30 10:26:52;;;;;;;9.90;3.00;;;21.50;76.30;;;;;;5072218;28;20461;-72
2022/01/30 10:29:23;;;;;;;7.07;2.57;;;20.60;77.20;;;;;;5072104;28;20462;-72
2022/01/30 10:32:05;;;;;;;6.73;2.63;;;19.40;78.40;;;;;;5071729;28;20469;-72
2022/01/30 10:34:32;;;;;;;6.73;3.03;;;18.50;79.60;;;;;;5070499;28;20459;-72
2022/01/30 10:37:14;;;;;;;5.60;2.67;;;17.60;81.90;;;;;;5071715;28;20505;-71
2022/01/30 10:39:58;;;;;;;8.33;3.63;;;18.30;81.10;;;;;;5071910;28;20494;-72
2022/01/30 10:42:34;;;;;;;8.27;2.90;;;19.60;78.30;;;;;;5071446;28;20462;-72
2022/01/30 10:45:01;;;;;;;6.63;2.93;;;19.30;78.00;;;;;;5071465;28;20477;-73
2022/01/30 10:47:29;;;;;;;7.63;3.13;;;19.00;78.60;;;;;;5072079;28;20458;-72
2022/01/30 10:49:57;;;;;;;5.13;2.37;;;18.50;79.30;;;;;;5071540;28;20514;-72
2022/01/30 10:52:25;;;;;;;8.90;3.10;;;18.70;79.40;;;;;;5070947;28;20458;-72
2022/01/30 10:54:52;;;;;;;6.43;2.77;;;18.20;80.10;;;;;;5072070;28;20859;-71
2022/01/30 10:57:18;;;;;;;4.77;3.20;;;17.90;81.30;;;;;;5071516;28;20483;-72
2022/01/30 10:59:53;;;;;;;7.13;3.40;;;18.90;80.30;;;;;;5071669;28;20837;-72
2022/01/30 11:02:22;;;;;;;6.90;2.80;;;19.60;79.20;;;;;;5070789;28;20481;-72
2022/01/30 11:04:50;;;;;;;5.33;2.87;;;20.60;76.90;;;;;;5072013;28;20986;-72
2022/01/30 11:07:20;;;;;;;6.50;3.57;;;21.40;75.20;;;;;;5071185;28;20498;-71
2022/01/30 11:09:59;;;;;;;6.20;2.87;;;21.40;74.80;;;;;;5071949;28;20981;-72
2022/01/30 11:12:34;;;;;;;5.43;2.80;;;21.90;74.60;;;;;;5070590;28;20941;-72
2022/01/30 11:15:16;;;;;;;8.30;2.60;;;21.30;75.20;;;;;;5071526;28;20536;-72
2022/01/30 11:17:44;;;;;;;7.77;2.77;;;20.80;76.30;;;;;;5071465;28;20811;-72
2022/01/30 11:20:13;;;;;;;5.60;3.40;;;19.70;77.50;;;;;;5070811;28;20509;-72
2022/01/30 11:22:42;;;;;;;7.73;3.20;;;19.70;77.60;;;;;;5070944;28;20528;-72
2022/01/30 11:25:12;;;;;;;7.10;3.37;;;19.50;77.30;;;;;;5071327;28;20490;-72
2022/01/30 11:27:41;;;;;;;5.03;3.30;;;19.10;79.40;;;;;;5070805;28;20462;-72
2022/01/30 11:30:09;;;;;;;6.37;3.20;;;18.30;79.20;;;;;;5071525;28;20486;-71
2022/01/30 11:32:36;;;;;;;6.23;2.93;;;16.70;82.40;;;;;;5070242;28;20983;-71
2022/01/30 11:35:04;;;;;;;5.27;3.33;;;15.00;83.70;;;;;;5071183;28;20483;-71
2022/01/30 11:37:32;;;;;;;7.30;3.40;;;13.90;86.00;;;;;;5070701;28;20459;-72
2022/01/30 11:40:00;;;;;;;8.60;3.67;;;13.20;88.10;;;;;;5071211;28;20457;-71
2022/01/30 11:42:37;;;;;;;9.20;3.40;;;12.30;89.60;;;;;;5069800;28;20197;-71
2022/01/30 11:45:17;;;;;;;6.90;2.85;;;11.70;90.50;;;;;;5070700;28;20220;-72
2022/01/30 11:47:46;;;;;;;6.70;2.78;;;11.00;91.20;;;;;;5071079;28;20204;-72
2022/01/30 11:50:14;;;;;;;7.80;3.05;;;10.50;92.70;;;;;;5070429;28;20213;-72
2022/01/30 11:52:59;;;;;;;8.25;3.75;;;10.10;92.40;;;;;;5070262;28;20204;-72
2022/01/30 11:55:48;;;;;;;6.78;3.35;;;10.80;92.70;;;;;;5070605;28;20289;-71
2022/01/30 12:00:49;;;;;;;8.93;2.83;;;13.70;88.60;;;;;;5068861;28;20270;-72
2022/01/30 12:03:26;;;;;;;7.40;3.20;;;13.30;88.40;;;;;;5069987;28;20200;-72
2022/01/30 12:05:54;;;;;;;12.38;3.83;;;12.40;90.40;;;;;;5070719;28;20227;-72
2022/01/30 12:08:44;;;;;;;6.40;2.60;;;11.70;90.50;;;;;;5070681;28;20204;-72
2022/01/30 12:11:47;;;;;;;6.47;2.83;;;11.00;91.20;;;;;;5070574;28;20361;-72
2022/01/30 12:14:45;;;;;;;7.97;3.05;;;10.70;91.90;;;;;;5070606;28;20204;-72
2022/01/30 12:17:14;;;;;;;5.45;2.70;;;11.40;91.70;;;;;;5069859;28;20205;-72
2022/01/30 12:20:10;;;;;;;11.57;2.95;;;11.80;90.90;;;;;;5069915;28;20404;-72
2022/01/30 12:22:39;;;;;;;6.32;3.03;;;11.10;91.20;;;;;;4988474;28;20223;-72
2022/01/30 12:25:39;;;;;;;9.02;3.20;;;10.70;91.60;;;;;;5052192;28;20217;-71
2022/01/30 12:28:13;;;;;;;9.73;3.60;;;10.90;93.30;;;;;;5069774;28;20201;-71
2022/01/30 12:30:52;;;;;;;17.33;9.38;;;12.30;91.40;;;;;;5069835;28;20226;-70
2022/01/30 12:33:45;;;;;;;5.38;2.70;;;13.40;90.20;;;;;;5069620;28;20224;-71
2022/01/30 12:36:20;;;;;;;5.10;2.80;;;14.80;86.20;;;;;;5069511;28;20231;-72
2022/01/30 12:38:57;;;;;;;3.75;2.60;;;15.50;83.50;;;;;;5069719;28;20203;-72
2022/01/30 12:41:25;;;;;;;7.82;3.13;;;15.30;83.00;;;;;;5069557;28;20203;-71
2022/01/30 12:43:55;;;;;;;6.55;3.10;;;14.70;83.50;;;;;;5069374;28;20196;-72
2022/01/30 12:46:24;;;;;;;6.97;2.90;;;14.50;85.40;;;;;;5069644;28;20231;-72
2022/01/30 12:49:13;;;;;;;5.18;2.28;;;14.40;86.10;;;;;;5069841;28;20212;-72
2022/01/30 12:51:43;;;;;;;8.00;3.10;;;14.20;87.30;;;;;;5069691;28;20251;-70
2022/01/30 12:54:11;;;;;;;5.72;2.90;;;14.10;86.40;;;;;;5069217;28;20211;-72
2022/01/30 12:56:38;;;;;;;8.40;2.72;;;14.30;86.90;;;;;;5069241;28;20651;-72
2022/01/30 12:59:10;;;;;;;11.40;3.20;;;14.30;86.50;;;;;;5066288;28;20215;-70
2022/01/30 13:01:40;;;;;;;8.52;3.40;;;13.70;88.10;;;;;;5069548;28;20196;-72
2022/01/30 13:04:10;;;;;;;6.60;3.25;;;13.40;89.90;;;;;;5069305;28;20215;-72
2022/01/30 13:06:40;;;;;;;8.63;2.55;;;14.20;87.70;;;;;;5069155;28;20238;-73
2022/01/30 13:09:07;;;;;;;3.67;2.53;;;14.60;86.40;;;;;;5069648;28;20843;-73
2022/01/30 13:11:34;;;;;;;6.45;2.60;;;14.70;84.70;;;;;;5068645;28;20224;-73
2022/01/30 13:14:03;;;;;;;7.32;3.05;;;14.50;84.80;;;;;;5069442;28;20207;-72
2022/01/30 13:16:33;;;;;;;4.28;2.65;;;13.80;87.10;;;;;;5070102;28;20220;-73
2022/01/30 13:19:02;;;;;;;10.73;3.17;;;13.10;87.40;;;;;;5070251;28;20702;-73
2022/01/30 13:21:32;;;;;;;10.13;3.33;;;12.20;89.50;;;;;;5070211;28;20215;-72
2022/01/30 13:24:00;;;;;;;7.30;3.17;;;11.50;90.70;;;;;;5069606;28;20212;-73
2022/01/30 13:26:41;;;;;;;11.90;3.50;;;10.90;91.10;;;;;;5070191;28;20586;-73
2022/01/30 13:29:14;;;;;;;10.10;2.90;;;10.40;91.80;;;;;;5060940;28;20194;-73
2022/01/30 13:31:42;;;;;;;7.82;2.90;;;10.00;92.10;;;;;;5029867;28;20247;-72
2022/01/30 13:34:15;;;;;;;4.72;2.78;;;9.70;92.90;;;;;;5029772;28;20283;-74
2022/01/30 13:36:52;;;;;;;4.97;3.10;;;9.40;93.30;;;;;;5031224;28;20232;-74
2022/01/30 13:39:25;;;;;;;6.45;3.17;;;9.00;93.50;;;;;;5050039;28;20200;-72
2022/01/30 13:42:02;;;;;;;10.25;3.15;;;8.70;94.10;;;;;;5049953;28;20764;-71
2022/01/30 13:44:39;;;;;;;9.13;2.72;;;8.50;94.60;;;;;;5049242;28;20211;-72